sensor_id;sensor_type;location;lat;lon;timestamp;temperature;humidity
61374;DHT22;47242;48.158;-1.586;2023-01-08T05:31:00;8.20;83.80
61374;DHT22;47242;48.158;-1.586;2023-01-08T05:33:26;8.20;83.70
61374;DHT22;47242;48.158;-1.586;2023-01-08T05:35:51;8.30;84.00
61374;DHT22;47242;48.158;-1.586;2023-01-08T05:38:17;8.40;83.70
61374;DHT22;47242;48.158;-1.586;2023-01-08T05:40:43;8.40;83.60
61374;DHT22;47242;48.158;-1.586;2023-01-08T05:43:09;8.30;83.40
61374;DHT22;47242;48.158;-1.586;2023-01-08T05:45:34;8.30;83.60
61374;DHT22;47242;48.158;-1.586;2023-01-08T05:48:04;8.30;83.60
61374;DHT22;47242;48.158;-1.586;2023-01-08T05:50:31;8.20;83.70
61374;DHT22;47242;48.158;-1.586;2023-01-08T05:52:57;8.10;83.90
61374;DHT22;47242;48.158;-1.586;2023-01-08T05:55:25;8.20;84.30
61374;DHT22;47242;48.158;-1.586;2023-01-08T05:57:50;8.20;83.80
61374;DHT22;47242;48.158;-1.586;2023-01-08T06:00:16;8.20;83.70
61374;DHT22;47242;48.158;-1.586;2023-01-08T06:02:46;8.20;83.90
61374;DHT22;47242;48.158;-1.586;2023-01-08T06:05:12;8.30;83.60
61374;DHT22;47242;48.158;-1.586;2023-01-08T06:07:38;8.30;83.00
61374;DHT22;47242;48.158;-1.586;2023-01-08T06:10:06;8.20;83.00
61374;DHT22;47242;48.158;-1.586;2023-01-08T06:12:34;8.20;83.50
61374;DHT22;47242;48.158;-1.586;2023-01-08T06:15:00;8.20;83.60
61374;DHT22;47242;48.158;-1.586;2023-01-08T06:17:25;8.10;83.50
61374;DHT22;47242;48.158;-1.586;2023-01-08T06:19:51;8.00;83.60
61374;DHT22;47242;48.158;-1.586;2023-01-08T06:22:17;7.90;84.00
61374;DHT22;47242;48.158;-1.586;2023-01-08T06:24:42;7.90;83.70
61374;DHT22;47242;48.158;-1.586;2023-01-08T06:27:08;8.00;84.10
61374;DHT22;47242;48.158;-1.586;2023-01-08T06:29:33;7.90;84.00
61374;DHT22;47242;48.158;-1.586;2023-01-08T06:31:59;8.00;84.20
61374;DHT22;47242;48.158;-1.586;2023-01-08T06:34:25;8.10;84.10
61374;DHT22;47242;48.158;-1.586;2023-01-08T06:36:50;8.20;83.90
61374;DHT22;47242;48.158;-1.586;2023-01-08T06:39:16;8.30;83.50
61374;DHT22;47242;48.158;-1.586;2023-01-08T06:41:43;8.30;83.60
61374;DHT22;47242;48.158;-1.586;2023-01-08T06:44:18;8.30;83.50
61374;DHT22;47242;48.158;-1.586;2023-01-08T06:46:44;8.40;83.50
61374;DHT22;47242;48.158;-1.586;2023-01-08T06:49:10;8.40;83.40
61374;DHT22;47242;48.158;-1.586;2023-01-08T06:51:35;8.40;83.30
61374;DHT22;47242;48.158;-1.586;2023-01-08T06:54:01;8.30;83.30
61374;DHT22;47242;48.158;-1.586;2023-01-08T06:56:27;8.30;83.40
61374;DHT22;47242;48.158;-1.586;2023-01-08T06:58:53;8.20;83.50
61374;DHT22;47242;48.158;-1.586;2023-01-08T07:01:19;8.10;83.70
61374;DHT22;47242;48.158;-1.586;2023-01-08T07:03:47;8.00;83.60
61374;DHT22;47242;48.158;-1.586;2023-01-08T07:06:19;8.00;84.00
61374;DHT22;47242;48.158;-1.586;2023-01-08T07:08:45;8.00;84.00
61374;DHT22;47242;48.158;-1.586;2023-01-08T07:11:11;8.00;84.20
61374;DHT22;47242;48.158;-1.586;2023-01-08T07:13:38;8.00;84.40
61374;DHT22;47242;48.158;-1.586;2023-01-08T07:16:07;8.00;84.30
61374;DHT22;47242;48.158;-1.586;2023-01-08T07:18:33;8.00;84.10
61374;DHT22;47242;48.158;-1.586;2023-01-08T07:21:01;7.90;84.40
61374;DHT22;47242;48.158;-1.586;2023-01-08T07:23:27;7.90;84.80
61374;DHT22;47242;48.158;-1.586;2023-01-08T07:25:52;7.90;84.70
61374;DHT22;47242;48.158;-1.586;2023-01-08T07:28:18;8.00;84.90
61374;DHT22;47242;48.158;-1.586;2023-01-08T07:30:44;8.00;84.40
61374;DHT22;47242;48.158;-1.586;2023-01-08T07:33:09;8.00;84.60
61374;DHT22;47242;48.158;-1.586;2023-01-08T07:35:35;8.00;85.00
61374;DHT22;47242;48.158;-1.586;2023-01-08T07:38:03;7.90;85.40
61374;DHT22;47242;48.158;-1.586;2023-01-08T07:40:29;8.00;85.30
61374;DHT22;47242;48.158;-1.586;2023-01-08T07:42:57;8.10;85.10
61374;DHT22;47242;48.158;-1.586;2023-01-08T07:45:24;8.20;84.80
61374;DHT22;47242;48.158;-1.586;2023-01-08T07:47:49;8.30;84.50
61374;DHT22;47242;48.158;-1.586;2023-01-08T07:50:15;8.40;84.40
61374;DHT22;47242;48.158;-1.586;2023-01-08T07:52:40;8.40;84.40
61374;DHT22;47242;48.158;-1.586;2023-01-08T07:55:06;8.40;84.50
61374;DHT22;47242;48.158;-1.586;2023-01-08T07:57:32;8.50;84.60
61374;DHT22;47242;48.158;-1.586;2023-01-08T07:59:58;8.50;84.70
61374;DHT22;47242;48.158;-1.586;2023-01-08T08:02:23;8.50;84.80
61374;DHT22;47242;48.158;-1.586;2023-01-08T08:04:49;8.50;84.80
61374;DHT22;47242;48.158;-1.586;2023-01-08T08:07:14;8.60;84.60
61374;DHT22;47242;48.158;-1.586;2023-01-08T08:09:40;8.60;84.60
61374;DHT22;47242;48.158;-1.586;2023-01-08T08:12:06;8.60;84.70
61374;DHT22;47242;48.158;-1.586;2023-01-08T08:14:32;8.60;84.60
61374;DHT22;47242;48.158;-1.586;2023-01-08T08:16:57;8.50;84.70
61374;DHT22;47242;48.158;-1.586;2023-01-08T08:19:23;8.60;84.70
61374;DHT22;47242;48.158;-1.586;2023-01-08T08:21:48;8.50;84.50
61374;DHT22;47242;48.158;-1.586;2023-01-08T08:24:14;8.60;84.70
61374;DHT22;47242;48.158;-1.586;2023-01-08T08:26:40;8.60;84.50
61374;DHT22;47242;48.158;-1.586;2023-01-08T08:29:06;8.60;84.70
61374;DHT22;47242;48.158;-1.586;2023-01-08T08:31:31;8.70;84.60
61374;DHT22;47242;48.158;-1.586;2023-01-08T08:33:57;8.70;84.50
61374;DHT22;47242;48.158;-1.586;2023-01-08T08:36:29;8.70;84.30
61374;DHT22;47242;48.158;-1.586;2023-01-08T08:38:55;8.80;84.20
61374;DHT22;47242;48.158;-1.586;2023-01-08T08:41:21;8.70;84.00
61374;DHT22;47242;48.158;-1.586;2023-01-08T08:43:46;8.70;84.10
61374;DHT22;47242;48.158;-1.586;2023-01-08T08:46:14;8.70;84.30
61374;DHT22;47242;48.158;-1.586;2023-01-08T08:48:39;8.60;83.90
61374;DHT22;47242;48.158;-1.586;2023-01-08T08:51:05;8.60;83.90
61374;DHT22;47242;48.158;-1.586;2023-01-08T08:53:31;8.60;84.30
61374;DHT22;47242;48.158;-1.586;2023-01-08T08:55:59;8.60;84.30
61374;DHT22;47242;48.158;-1.586;2023-01-08T08:58:25;8.50;84.20
61374;DHT22;47242;48.158;-1.586;2023-01-08T09:00:50;8.50;84.30
61374;DHT22;47242;48.158;-1.586;2023-01-08T09:03:16;8.50;84.30
61374;DHT22;47242;48.158;-1.586;2023-01-08T09:05:42;8.40;84.30
61374;DHT22;47242;48.158;-1.586;2023-01-08T09:08:08;8.60;84.30
61374;DHT22;47242;48.158;-1.586;2023-01-08T09:10:39;8.60;84.20
61374;DHT22;47242;48.158;-1.586;2023-01-08T09:13:06;8.70;84.00
61374;DHT22;47242;48.158;-1.586;2023-01-08T09:15:32;8.70;84.40
61374;DHT22;47242;48.158;-1.586;2023-01-08T09:17:58;8.70;84.40
61374;DHT22;47242;48.158;-1.586;2023-01-08T09:20:25;8.80;84.40
61374;DHT22;47242;48.158;-1.586;2023-01-08T09:22:51;8.90;84.20
61374;DHT22;47242;48.158;-1.586;2023-01-08T09:25:17;8.90;84.40
61374;DHT22;47242;48.158;-1.586;2023-01-08T09:27:43;9.10;84.30
61374;DHT22;47242;48.158;-1.586;2023-01-08T09:30:09;9.20;84.20
61374;DHT22;47242;48.158;-1.586;2023-01-08T09:32:35;9.50;83.80
61374;DHT22;47242;48.158;-1.586;2023-01-08T09:35:00;9.60;83.40
61374;DHT22;47242;48.158;-1.586;2023-01-08T09:37:26;9.50;83.50
61374;DHT22;47242;48.158;-1.586;2023-01-08T09:39:52;9.60;83.60
61374;DHT22;47242;48.158;-1.586;2023-01-08T09:42:21;9.50;83.80
61374;DHT22;47242;48.158;-1.586;2023-01-08T09:44:51;9.60;83.90
61374;DHT22;47242;48.158;-1.586;2023-01-08T09:47:35;9.60;84.10
61374;DHT22;47242;48.158;-1.586;2023-01-08T09:50:05;9.60;84.10
61374;DHT22;47242;48.158;-1.586;2023-01-08T09:52:32;9.80;84.20
61374;DHT22;47242;48.158;-1.586;2023-01-08T09:54:59;9.80;84.30
61374;DHT22;47242;48.158;-1.586;2023-01-08T09:57:25;9.90;84.00
61374;DHT22;47242;48.158;-1.586;2023-01-08T09:59:51;10.00;83.90
61374;DHT22;47242;48.158;-1.586;2023-01-08T10:02:23;10.20;83.70
61374;DHT22;47242;48.158;-1.586;2023-01-08T10:04:53;10.30;83.30
61374;DHT22;47242;48.158;-1.586;2023-01-08T10:07:24;10.40;83.10
61374;DHT22;47242;48.158;-1.586;2023-01-08T10:09:54;10.40;82.80
61374;DHT22;47242;48.158;-1.586;2023-01-08T10:12:28;10.50;82.90
61374;DHT22;47242;48.158;-1.586;2023-01-08T10:14:57;10.50;82.60
61374;DHT22;47242;48.158;-1.586;2023-01-08T10:17:41;10.50;82.70
61374;DHT22;47242;48.158;-1.586;2023-01-08T10:20:18;10.60;82.50
61374;DHT22;47242;48.158;-1.586;2023-01-08T10:22:44;10.60;82.60
61374;DHT22;47242;48.158;-1.586;2023-01-08T10:25:16;10.60;82.30
61374;DHT22;47242;48.158;-1.586;2023-01-08T10:27:52;10.60;82.30
61374;DHT22;47242;48.158;-1.586;2023-01-08T10:33:01;10.60;82.30
61374;DHT22;47242;48.158;-1.586;2023-01-08T10:35:36;10.70;82.30
61374;DHT22;47242;48.158;-1.586;2023-01-08T10:38:03;10.80;82.00
61374;DHT22;47242;48.158;-1.586;2023-01-08T10:40:38;10.90;81.70
61374;DHT22;47242;48.158;-1.586;2023-01-08T10:43:22;11.00;81.40
61374;DHT22;47242;48.158;-1.586;2023-01-08T10:46:01;11.10;80.90
61374;DHT22;47242;48.158;-1.586;2023-01-08T10:48:37;11.10;80.60
61374;DHT22;47242;48.158;-1.586;2023-01-08T10:53:38;11.00;80.10
61374;DHT22;47242;48.158;-1.586;2023-01-08T10:56:05;11.00;80.40
61374;DHT22;47242;48.158;-1.586;2023-01-08T10:58:41;11.10;80.10
61374;DHT22;47242;48.158;-1.586;2023-01-08T11:01:27;11.10;80.00
61374;DHT22;47242;48.158;-1.586;2023-01-08T11:04:04;11.10;79.70
61374;DHT22;47242;48.158;-1.586;2023-01-08T11:06:42;11.10;79.50
61374;DHT22;47242;48.158;-1.586;2023-01-08T11:09:23;11.10;79.70
61374;DHT22;47242;48.158;-1.586;2023-01-08T11:11:50;11.20;79.20
61374;DHT22;47242;48.158;-1.586;2023-01-08T11:14:29;11.20;78.40
61374;DHT22;47242;48.158;-1.586;2023-01-08T11:16:57;11.20;78.30
61374;DHT22;47242;48.158;-1.586;2023-01-08T11:19:28;11.20;78.80
61374;DHT22;47242;48.158;-1.586;2023-01-08T11:22:17;11.20;78.90
61374;DHT22;47242;48.158;-1.586;2023-01-08T11:24:44;11.20;79.00
61374;DHT22;47242;48.158;-1.586;2023-01-08T11:27:17;11.30;78.60
61374;DHT22;47242;48.158;-1.586;2023-01-08T11:32:48;11.20;79.00
61374;DHT22;47242;48.158;-1.586;2023-01-08T11:35:32;11.20;79.40
61374;DHT22;47242;48.158;-1.586;2023-01-08T11:38:01;11.20;79.50
61374;DHT22;47242;48.158;-1.586;2023-01-08T11:40:32;11.20;78.90
61374;DHT22;47242;48.158;-1.586;2023-01-08T12:02:25;12.50;76.00
61374;DHT22;47242;48.158;-1.586;2023-01-08T12:11:06;12.10;77.00
61374;DHT22;47242;48.158;-1.586;2023-01-08T12:22:15;12.20;78.00
61374;DHT22;47242;48.158;-1.586;2023-01-08T12:30:17;12.50;76.50
61374;DHT22;47242;48.158;-1.586;2023-01-08T12:32:53;12.50;76.50
61374;DHT22;47242;48.158;-1.586;2023-01-08T12:35:47;12.50;76.70
61374;DHT22;47242;48.158;-1.586;2023-01-08T12:38:31;12.30;76.70
61374;DHT22;47242;48.158;-1.586;2023-01-08T12:41:17;12.40;77.10
61374;DHT22;47242;48.158;-1.586;2023-01-08T12:46:21;12.50;77.00
61374;DHT22;47242;48.158;-1.586;2023-01-08T12:48:50;12.50;76.70
61374;DHT22;47242;48.158;-1.586;2023-01-08T12:51:27;12.70;77.50
61374;DHT22;47242;48.158;-1.586;2023-01-08T13:07:56;12.80;77.80
61374;DHT22;47242;48.158;-1.586;2023-01-08T13:10:37;12.70;78.30
61374;DHT22;47242;48.158;-1.586;2023-01-08T13:13:06;12.70;78.70
61374;DHT22;47242;48.158;-1.586;2023-01-08T13:15:33;12.60;78.90
61374;DHT22;47242;48.158;-1.586;2023-01-08T13:18:15;12.60;79.50
61374;DHT22;47242;48.158;-1.586;2023-01-08T13:20:41;12.50;79.70
61374;DHT22;47242;48.158;-1.586;2023-01-08T13:23:22;12.60;80.10
61374;DHT22;47242;48.158;-1.586;2023-01-08T13:25:54;12.70;79.80
61374;DHT22;47242;48.158;-1.586;2023-01-08T13:28:47;12.70;79.30
61374;DHT22;47242;48.158;-1.586;2023-01-08T13:33:49;12.80;78.70
61374;DHT22;47242;48.158;-1.586;2023-01-08T13:44:40;12.80;77.60
61374;DHT22;47242;48.158;-1.586;2023-01-08T13:47:18;12.80;77.50
61374;DHT22;47242;48.158;-1.586;2023-01-08T13:49:48;12.70;77.90
61374;DHT22;47242;48.158;-1.586;2023-01-08T13:52:37;12.70;78.00
61374;DHT22;47242;48.158;-1.586;2023-01-08T13:55:19;12.60;77.90
61374;DHT22;47242;48.158;-1.586;2023-01-08T13:57:52;12.50;77.20
61374;DHT22;47242;48.158;-1.586;2023-01-08T14:00:37;12.50;77.50
61374;DHT22;47242;48.158;-1.586;2023-01-08T14:03:27;12.50;77.80
61374;DHT22;47242;48.158;-1.586;2023-01-08T14:06:15;12.50;77.40
61374;DHT22;47242;48.158;-1.586;2023-01-08T14:09:01;12.50;76.50
61374;DHT22;47242;48.158;-1.586;2023-01-08T14:11:44;12.60;76.10
61374;DHT22;47242;48.158;-1.586;2023-01-08T14:14:16;12.50;75.60
61374;DHT22;47242;48.158;-1.586;2023-01-08T14:16:43;12.50;75.90
61374;DHT22;47242;48.158;-1.586;2023-01-08T14:19:15;12.50;76.00
61374;DHT22;47242;48.158;-1.586;2023-01-08T14:21:55;12.40;76.30
61374;DHT22;47242;48.158;-1.586;2023-01-08T14:24:23;12.40;76.60
61374;DHT22;47242;48.158;-1.586;2023-01-08T14:26:59;12.30;77.10
61374;DHT22;47242;48.158;-1.586;2023-01-08T14:29:27;12.30;77.70
61374;DHT22;47242;48.158;-1.586;2023-01-08T14:31:56;11.90;76.30
61374;DHT22;47242;48.158;-1.586;2023-01-08T14:34:24;11.40;75.70
61374;DHT22;47242;48.158;-1.586;2023-01-08T14:36:52;11.10;75.00
61374;DHT22;47242;48.158;-1.586;2023-01-08T14:39:25;11.00;76.40
61374;DHT22;47242;48.158;-1.586;2023-01-08T14:42:21;11.00;76.60
61374;DHT22;47242;48.158;-1.586;2023-01-08T14:45:07;11.10;77.40
61374;DHT22;47242;48.158;-1.586;2023-01-08T14:47:43;11.10;76.90
61374;DHT22;47242;48.158;-1.586;2023-01-08T14:50:25;11.20;76.60
61374;DHT22;47242;48.158;-1.586;2023-01-08T14:52:56;11.00;76.20
61374;DHT22;47242;48.158;-1.586;2023-01-08T14:55:24;11.10;76.90
61374;DHT22;47242;48.158;-1.586;2023-01-08T14:57:52;11.00;77.30
61374;DHT22;47242;48.158;-1.586;2023-01-08T15:00:23;11.00;77.30
61374;DHT22;47242;48.158;-1.586;2023-01-08T15:02:49;11.00;77.60
61374;DHT22;47242;48.158;-1.586;2023-01-08T15:05:29;10.90;77.00
61374;DHT22;47242;48.158;-1.586;2023-01-08T15:07:59;10.80;76.40
61374;DHT22;47242;48.158;-1.586;2023-01-08T15:13:00;10.70;76.90
61374;DHT22;47242;48.158;-1.586;2023-01-08T15:15:28;10.70;77.30
61374;DHT22;47242;48.158;-1.586;2023-01-08T15:17:55;10.70;77.50
61374;DHT22;47242;48.158;-1.586;2023-01-08T15:20:24;10.60;77.60
61374;DHT22;47242;48.158;-1.586;2023-01-08T15:22:51;10.60;77.50
61374;DHT22;47242;48.158;-1.586;2023-01-08T15:25:27;10.50;77.90
61374;DHT22;47242;48.158;-1.586;2023-01-08T15:28:01;10.50;78.00
61374;DHT22;47242;48.158;-1.586;2023-01-08T15:30:34;10.60;78.00
61374;DHT22;47242;48.158;-1.586;2023-01-08T15:33:27;10.50;77.70
61374;DHT22;47242;48.158;-1.586;2023-01-08T15:35:53;10.50;77.60
61374;DHT22;47242;48.158;-1.586;2023-01-08T15:38:19;10.40;77.60
61374;DHT22;47242;48.158;-1.586;2023-01-08T15:40:47;10.30;77.40
61374;DHT22;47242;48.158;-1.586;2023-01-08T15:43:16;10.40;77.50
61374;DHT22;47242;48.158;-1.586;2023-01-08T15:45:46;10.30;77.20
61374;DHT22;47242;48.158;-1.586;2023-01-08T15:48:13;10.30;77.40
61374;DHT22;47242;48.158;-1.586;2023-01-08T15:50:41;10.40;77.30
61374;DHT22;47242;48.158;-1.586;2023-01-08T15:53:20;10.40;77.40
61374;DHT22;47242;48.158;-1.586;2023-01-08T15:55:50;10.40;77.50
61374;DHT22;47242;48.158;-1.586;2023-01-08T15:58:18;10.40;77.70
61374;DHT22;47242;48.158;-1.586;2023-01-08T16:00:45;10.40;77.30
61374;DHT22;47242;48.158;-1.586;2023-01-08T16:03:12;10.30;77.40
61374;DHT22;47242;48.158;-1.586;2023-01-08T16:05:38;10.30;77.30
61374;DHT22;47242;48.158;-1.586;2023-01-08T16:08:04;10.20;77.10
61374;DHT22;47242;48.158;-1.586;2023-01-08T16:10:30;10.30;77.40
61374;DHT22;47242;48.158;-1.586;2023-01-08T16:12:56;10.30;77.40
61374;DHT22;47242;48.158;-1.586;2023-01-08T16:15:23;10.30;77.20
61374;DHT22;47242;48.158;-1.586;2023-01-08T16:17:49;10.20;77.00
61374;DHT22;47242;48.158;-1.586;2023-01-08T16:20:15;10.20;76.90
61374;DHT22;47242;48.158;-1.586;2023-01-08T16:22:42;10.10;77.00
61374;DHT22;47242;48.158;-1.586;2023-01-08T16:25:09;10.10;77.50
61374;DHT22;47242;48.158;-1.586;2023-01-08T16:27:35;10.20;77.30
61374;DHT22;47242;48.158;-1.586;2023-01-08T16:30:03;10.10;77.10
61374;DHT22;47242;48.158;-1.586;2023-01-08T16:32:29;10.00;77.20
61374;DHT22;47242;48.158;-1.586;2023-01-08T16:34:54;10.00;77.30
61374;DHT22;47242;48.158;-1.586;2023-01-08T16:37:21;9.90;77.10
61374;DHT22;47242;48.158;-1.586;2023-01-08T16:39:46;9.90;77.20
61374;DHT22;47242;48.158;-1.586;2023-01-08T16:42:12;9.80;77.00
61374;DHT22;47242;48.158;-1.586;2023-01-08T16:44:38;9.80;77.30
61374;DHT22;47242;48.158;-1.586;2023-01-08T16:47:03;9.80;77.40
61374;DHT22;47242;48.158;-1.586;2023-01-08T16:49:29;9.80;77.30
61374;DHT22;47242;48.158;-1.586;2023-01-08T16:51:57;9.80;77.30
61374;DHT22;47242;48.158;-1.586;2023-01-08T16:54:26;9.70;77.30
61374;DHT22;47242;48.158;-1.586;2023-01-08T16:56:52;9.80;77.30
61374;DHT22;47242;48.158;-1.586;2023-01-08T16:59:18;9.80;77.20
61374;DHT22;47242;48.158;-1.586;2023-01-08T17:01:44;9.80;77.10
61374;DHT22;47242;48.158;-1.586;2023-01-08T17:04:10;9.80;77.10
61374;DHT22;47242;48.158;-1.586;2023-01-08T17:06:36;9.80;77.00
61374;DHT22;47242;48.158;-1.586;2023-01-08T17:09:04;9.70;76.60
61374;DHT22;47242;48.158;-1.586;2023-01-08T17:11:31;9.70;77.10
61374;DHT22;47242;48.158;-1.586;2023-01-08T17:13:57;9.60;76.80
61374;DHT22;47242;48.158;-1.586;2023-01-08T17:16:23;9.70;76.80
61374;DHT22;47242;48.158;-1.586;2023-01-08T17:18:48;9.70;76.90
61374;DHT22;47242;48.158;-1.586;2023-01-08T17:21:14;9.70;76.80
61374;DHT22;47242;48.158;-1.586;2023-01-08T17:23:42;9.60;77.00
61374;DHT22;47242;48.158;-1.586;2023-01-08T17:26:09;9.60;76.60
61374;DHT22;47242;48.158;-1.586;2023-01-08T17:28:44;9.50;77.00
61374;DHT22;47242;48.158;-1.586;2023-01-08T17:31:16;9.50;76.80
61374;DHT22;47242;48.158;-1.586;2023-01-08T17:33:43;9.40;77.30
61374;DHT22;47242;48.158;-1.586;2023-01-08T17:36:14;9.40;77.40
61374;DHT22;47242;48.158;-1.586;2023-01-08T17:38:40;9.30;77.40
61374;DHT22;47242;48.158;-1.586;2023-01-08T17:41:08;9.30;77.50
61374;DHT22;47242;48.158;-1.586;2023-01-08T17:43:35;9.30;77.50
61374;DHT22;47242;48.158;-1.586;2023-01-08T17:46:06;9.30;77.70
61374;DHT22;47242;48.158;-1.586;2023-01-08T17:48:33;9.20;77.70
61374;DHT22;47242;48.158;-1.586;2023-01-08T17:50:59;9.20;77.90
61374;DHT22;47242;48.158;-1.586;2023-01-08T17:53:25;9.20;78.20
61374;DHT22;47242;48.158;-1.586;2023-01-08T17:55:51;9.10;78.30
61374;DHT22;47242;48.158;-1.586;2023-01-08T17:58:18;9.10;78.40
61374;DHT22;47242;48.158;-1.586;2023-01-08T18:00:44;9.10;78.40
61374;DHT22;47242;48.158;-1.586;2023-01-08T18:03:09;9.10;78.40
61374;DHT22;47242;48.158;-1.586;2023-01-08T18:05:35;9.00;78.70
61374;DHT22;47242;48.158;-1.586;2023-01-08T18:08:01;8.90;78.90
61374;DHT22;47242;48.158;-1.586;2023-01-08T18:10:26;9.00;79.00
61374;DHT22;47242;48.158;-1.586;2023-01-08T18:12:52;8.90;79.30
61374;DHT22;47242;48.158;-1.586;2023-01-08T18:15:18;8.90;79.10
61374;DHT22;47242;48.158;-1.586;2023-01-08T18:17:43;8.80;79.40
61374;DHT22;47242;48.158;-1.586;2023-01-08T18:20:09;8.80;79.60
61374;DHT22;47242;48.158;-1.586;2023-01-08T18:22:35;8.80;79.70
61374;DHT22;47242;48.158;-1.586;2023-01-08T18:25:01;8.80;79.70
61374;DHT22;47242;48.158;-1.586;2023-01-08T18:27:26;8.80;79.90
61374;DHT22;47242;48.158;-1.586;2023-01-08T18:29:55;8.80;79.70
61374;DHT22;47242;48.158;-1.586;2023-01-08T18:32:20;8.70;79.80
61374;DHT22;47242;48.158;-1.586;2023-01-08T18:34:53;8.70;79.90
61374;DHT22;47242;48.158;-1.586;2023-01-08T18:37:19;8.60;80.00
61374;DHT22;47242;48.158;-1.586;2023-01-08T18:39:47;8.70;80.30
61374;DHT22;47242;48.158;-1.586;2023-01-08T18:42:13;8.60;80.40
61374;DHT22;47242;48.158;-1.586;2023-01-08T18:44:52;8.70;80.30
61374;DHT22;47242;48.158;-1.586;2023-01-08T18:47:24;8.70;80.10
61374;DHT22;47242;48.158;-1.586;2023-01-08T18:49:51;8.70;80.00
61374;DHT22;47242;48.158;-1.586;2023-01-08T18:52:17;8.70;80.00
61374;DHT22;47242;48.158;-1.586;2023-01-08T18:54:43;8.70;80.00
61374;DHT22;47242;48.158;-1.586;2023-01-08T18:57:17;8.70;79.90
61374;DHT22;47242;48.158;-1.586;2023-01-08T18:59:43;8.70;79.90
61374;DHT22;47242;48.158;-1.586;2023-01-08T19:02:20;8.70;79.80
61374;DHT22;47242;48.158;-1.586;2023-01-08T19:04:46;8.70;79.90
61374;DHT22;47242;48.158;-1.586;2023-01-08T19:07:13;8.70;79.90
61374;DHT22;47242;48.158;-1.586;2023-01-08T19:09:39;8.60;79.90
61374;DHT22;47242;48.158;-1.586;2023-01-08T19:12:05;8.60;80.00
61374;DHT22;47242;48.158;-1.586;2023-01-08T19:14:31;8.60;80.10
61374;DHT22;47242;48.158;-1.586;2023-01-08T19:16:59;8.60;80.20
61374;DHT22;47242;48.158;-1.586;2023-01-08T19:19:26;8.60;80.10
61374;DHT22;47242;48.158;-1.586;2023-01-08T19:21:52;8.60;79.90
61374;DHT22;47242;48.158;-1.586;2023-01-08T19:24:19;8.60;79.70
61374;DHT22;47242;48.158;-1.586;2023-01-08T19:26:45;8.60;79.80
61374;DHT22;47242;48.158;-1.586;2023-01-08T19:29:11;8.60;79.50
61374;DHT22;47242;48.158;-1.586;2023-01-08T19:31:37;8.60;79.60
61374;DHT22;47242;48.158;-1.586;2023-01-08T19:34:03;8.60;79.60
61374;DHT22;47242;48.158;-1.586;2023-01-08T19:36:29;8.60;79.60
61374;DHT22;47242;48.158;-1.586;2023-01-08T19:38:55;8.60;79.40
61374;DHT22;47242;48.158;-1.586;2023-01-08T19:41:20;8.50;79.60
61374;DHT22;47242;48.158;-1.586;2023-01-08T19:44:05;8.50;79.50
61374;DHT22;47242;48.158;-1.586;2023-01-08T19:46:33;8.50;79.50
61374;DHT22;47242;48.158;-1.586;2023-01-08T19:49:00;8.50;79.40
61374;DHT22;47242;48.158;-1.586;2023-01-08T19:51:27;8.40;79.80
61374;DHT22;47242;48.158;-1.586;2023-01-08T19:54:11;8.50;79.60
61374;DHT22;47242;48.158;-1.586;2023-01-08T19:56:37;8.40;79.50
61374;DHT22;47242;48.158;-1.586;2023-01-08T19:59:02;8.40;79.50
61374;DHT22;47242;48.158;-1.586;2023-01-08T20:01:28;8.50;79.30
61374;DHT22;47242;48.158;-1.586;2023-01-08T20:03:54;8.50;79.30
61374;DHT22;47242;48.158;-1.586;2023-01-08T20:06:23;8.40;79.30
61374;DHT22;47242;48.158;-1.586;2023-01-08T20:08:51;8.50;79.30
61374;DHT22;47242;48.158;-1.586;2023-01-08T20:11:19;8.40;79.20
61374;DHT22;47242;48.158;-1.586;2023-01-08T20:13:49;8.50;79.10
61374;DHT22;47242;48.158;-1.586;2023-01-08T20:16:16;8.50;79.00
61374;DHT22;47242;48.158;-1.586;2023-01-08T20:18:43;8.40;78.90
61374;DHT22;47242;48.158;-1.586;2023-01-08T20:21:11;8.40;79.10
61374;DHT22;47242;48.158;-1.586;2023-01-08T20:23:37;8.40;78.70
61374;DHT22;47242;48.158;-1.586;2023-01-08T20:26:05;8.40;78.80
61374;DHT22;47242;48.158;-1.586;2023-01-08T20:28:33;8.40;78.70
61374;DHT22;47242;48.158;-1.586;2023-01-08T20:33:31;8.40;78.50
61374;DHT22;47242;48.158;-1.586;2023-01-08T20:35:56;8.30;78.30
61374;DHT22;47242;48.158;-1.586;2023-01-08T20:38:22;8.30;78.70
61374;DHT22;47242;48.158;-1.586;2023-01-08T20:40:50;8.30;78.60
61374;DHT22;47242;48.158;-1.586;2023-01-08T20:43:16;8.30;78.50
61374;DHT22;47242;48.158;-1.586;2023-01-08T20:45:41;8.30;78.40
61374;DHT22;47242;48.158;-1.586;2023-01-08T20:48:08;8.30;78.60
61374;DHT22;47242;48.158;-1.586;2023-01-08T20:50:34;8.20;78.60
61374;DHT22;47242;48.158;-1.586;2023-01-08T20:52:59;8.20;78.70
61374;DHT22;47242;48.158;-1.586;2023-01-08T20:55:25;8.20;79.00
61374;DHT22;47242;48.158;-1.586;2023-01-08T20:57:51;8.20;79.20
61374;DHT22;47242;48.158;-1.586;2023-01-08T21:00:17;8.20;79.00
61374;DHT22;47242;48.158;-1.586;2023-01-08T21:02:42;8.20;79.20
61374;DHT22;47242;48.158;-1.586;2023-01-08T21:05:08;8.30;79.00
61374;DHT22;47242;48.158;-1.586;2023-01-08T21:07:34;8.30;78.90
61374;DHT22;47242;48.158;-1.586;2023-01-08T21:10:00;8.30;79.00
61374;DHT22;47242;48.158;-1.586;2023-01-08T21:12:25;8.40;78.80
61374;DHT22;47242;48.158;-1.586;2023-01-08T21:14:51;8.30;78.80
61374;DHT22;47242;48.158;-1.586;2023-01-08T21:17:17;8.30;78.70
61374;DHT22;47242;48.158;-1.586;2023-01-08T21:19:42;8.30;79.00
61374;DHT22;47242;48.158;-1.586;2023-01-08T21:22:08;8.40;79.10
61374;DHT22;47242;48.158;-1.586;2023-01-08T21:24:34;8.30;79.20
61374;DHT22;47242;48.158;-1.586;2023-01-08T21:26:59;8.40;79.20
61374;DHT22;47242;48.158;-1.586;2023-01-08T21:29:25;8.40;79.10
61374;DHT22;47242;48.158;-1.586;2023-01-08T21:31:51;8.40;79.40
61374;DHT22;47242;48.158;-1.586;2023-01-08T21:34:17;8.40;79.30
61374;DHT22;47242;48.158;-1.586;2023-01-08T21:36:46;8.40;79.40
61374;DHT22;47242;48.158;-1.586;2023-01-08T21:39:12;8.40;79.40
61374;DHT22;47242;48.158;-1.586;2023-01-08T21:41:37;8.40;79.10
61374;DHT22;47242;48.158;-1.586;2023-01-08T21:44:23;8.40;79.40
61374;DHT22;47242;48.158;-1.586;2023-01-08T21:47:15;8.40;79.30
61374;DHT22;47242;48.158;-1.586;2023-01-08T21:49:42;8.40;79.40
61374;DHT22;47242;48.158;-1.586;2023-01-08T21:52:08;8.40;79.30
61374;DHT22;47242;48.158;-1.586;2023-01-08T21:54:53;8.40;79.40
61374;DHT22;47242;48.158;-1.586;2023-01-08T21:57:20;8.30;79.70
61374;DHT22;47242;48.158;-1.586;2023-01-08T21:59:49;8.30;79.70
61374;DHT22;47242;48.158;-1.586;2023-01-08T22:02:17;8.30;79.90
61374;DHT22;47242;48.158;-1.586;2023-01-08T22:04:44;8.30;79.90
61374;DHT22;47242;48.158;-1.586;2023-01-08T22:07:10;8.40;79.80
61374;DHT22;47242;48.158;-1.586;2023-01-08T22:09:36;8.40;79.80
61374;DHT22;47242;48.158;-1.586;2023-01-08T22:12:02;8.30;79.70
61374;DHT22;47242;48.158;-1.586;2023-01-08T22:14:28;8.40;79.80
61374;DHT22;47242;48.158;-1.586;2023-01-08T22:16:53;8.40;79.80
61374;DHT22;47242;48.158;-1.586;2023-01-08T22:19:19;8.40;79.80
61374;DHT22;47242;48.158;-1.586;2023-01-08T22:21:45;8.30;80.00
61374;DHT22;47242;48.158;-1.586;2023-01-08T22:24:13;8.30;80.20
61374;DHT22;47242;48.158;-1.586;2023-01-08T22:26:39;8.30;80.30